createdAt,value
2023-01-31T00:00:25.394Z,87.54
2023-01-31T00:02:05.572Z,87.43
2023-01-31T00:03:45.844Z,87.48
2023-01-31T00:05:25.927Z,87.57
2023-01-31T00:07:06.007Z,88.12
2023-01-31T00:08:46.157Z,88.5
2023-01-31T00:10:26.307Z,88.98
2023-01-31T00:12:06.441Z,89.47
2023-01-31T00:13:46.597Z,89.74
2023-01-31T00:15:26.813Z,90.03
2023-01-31T00:17:06.897Z,90.25
2023-01-31T00:18:47.055Z,90.48
2023-01-31T00:22:07.363Z,90.6
2023-01-31T00:23:47.481Z,90.46
2023-01-31T00:25:27.641Z,90.26
2023-01-31T00:27:07.780Z,89.52
2023-01-31T00:28:47.918Z,89.22
2023-01-31T00:30:28.053Z,88.79
2023-01-31T00:32:08.338Z,88.84
2023-01-31T00:33:48.383Z,88.96
2023-01-31T00:35:28.658Z,88.63
2023-01-31T00:37:08.807Z,88.07
2023-01-31T00:38:48.979Z,88.14
2023-01-31T00:40:29.076Z,88.19
2023-01-31T00:42:09.205Z,87.91
2023-01-31T00:43:49.393Z,87.72
2023-01-31T00:45:29.599Z,87.74
2023-01-31T01:07:14.300Z,87.36
2023-01-31T01:08:54.470Z,87.51
2023-01-31T01:10:34.714Z,87.52
2023-01-31T01:12:14.739Z,87.45
2023-01-31T01:13:54.896Z,87.46
2023-01-31T01:15:35.278Z,87.36
2023-01-31T01:17:15.228Z,87.33
2023-01-31T01:18:55.459Z,87.39
2023-01-31T01:20:35.641Z,87.41
2023-01-31T01:22:15.732Z,87.34
2023-01-31T01:23:55.886Z,87.3
2023-01-31T01:25:36.238Z,87.33
2023-01-31T01:27:16.115Z,87.43
2023-01-31T01:28:56.291Z,87.14
2023-01-31T01:30:36.537Z,87.04
2023-01-31T01:32:16.639Z,86.91
2023-01-31T01:33:56.769Z,86.65
2023-01-31T01:35:36.936Z,86.47
2023-01-31T01:37:17.136Z,86.62
2023-01-31T01:38:57.298Z,86.55
2023-01-31T01:40:37.445Z,86.78
2023-01-31T01:42:17.613Z,86.83
2023-01-31T01:43:57.732Z,86.7
2023-01-31T01:45:37.952Z,86.56
2023-01-31T01:47:18.104Z,86.59
2023-01-31T01:48:58.290Z,86.91
2023-01-31T01:50:38.445Z,86.78
2023-01-31T01:52:18.587Z,86.93
2023-01-31T01:53:58.682Z,86.95
2023-01-31T01:55:38.898Z,87.05
2023-01-31T01:57:19.023Z,87.02
2023-01-31T01:58:59.143Z,87.32
2023-01-31T02:00:39.392Z,87.48
2023-01-31T02:02:19.602Z,87.63
2023-01-31T02:05:39.767Z,87.55
2023-01-31T02:07:19.914Z,87.62
2023-01-31T02:09:00.043Z,87.73
2023-01-31T02:10:40.167Z,87.76
2023-01-31T02:12:20.300Z,87.91
2023-01-31T02:14:00.411Z,88
2023-01-31T02:15:40.556Z,87.95
2023-01-31T02:17:20.701Z,87.99
2023-01-31T02:19:00.826Z,88.07
2023-01-31T02:20:40.998Z,88.16
2023-01-31T02:22:21.162Z,88.33
2023-01-31T02:24:01.378Z,88.1
2023-01-31T02:25:41.563Z,88.17
2023-01-31T02:27:21.683Z,88.23
2023-01-31T02:29:01.828Z,88.14
2023-01-31T02:30:41.951Z,87.95
2023-01-31T02:32:22.539Z,87.95
2023-01-31T02:34:02.403Z,87.78
2023-01-31T02:35:42.577Z,87.78
2023-01-31T02:37:23.165Z,87.81
2023-01-31T02:39:02.862Z,87.67
2023-01-31T02:40:43.036Z,87.63
2023-01-31T02:42:23.133Z,87.89
2023-01-31T02:44:03.339Z,87.98
2023-01-31T02:45:43.558Z,87.97
2023-01-31T02:47:23.623Z,87.65
2023-01-31T02:49:03.766Z,87.69
2023-01-31T02:50:43.924Z,87.77
2023-01-31T02:52:24.139Z,87.59
2023-01-31T02:54:04.279Z,87.51
2023-01-31T02:55:44.433Z,87.47
2023-01-31T02:57:24.579Z,87.39
2023-01-31T02:59:04.729Z,87.21
2023-01-31T03:00:45.523Z,86.98
2023-01-31T03:02:25.099Z,87.15
2023-01-31T03:04:05.189Z,87.28
2023-01-31T03:05:45.297Z,87.13
2023-01-31T03:07:25.461Z,87.25
2023-01-31T03:09:05.579Z,87.4
2023-01-31T03:10:45.715Z,87.3
2023-01-31T03:12:25.871Z,87.43
2023-01-31T03:14:06.040Z,87.42
2023-01-31T03:15:46.197Z,87.54
2023-01-31T03:17:26.350Z,87.63
2023-01-31T03:19:06.530Z,87.45
2023-01-31T03:20:46.692Z,87.27
2023-01-31T03:22:26.835Z,87.47
2023-01-31T03:24:07.008Z,87.57
2023-01-31T03:25:47.131Z,87.63
2023-01-31T03:27:27.323Z,87.4
2023-01-31T03:29:07.469Z,87.51
2023-01-31T03:30:47.709Z,87.59
2023-01-31T03:32:27.806Z,87.6
2023-01-31T03:35:48.064Z,87.66
2023-01-31T03:37:28.266Z,87.69
2023-01-31T03:39:08.453Z,87.73
2023-01-31T03:40:48.567Z,87.77
2023-01-31T03:42:28.710Z,87.8
2023-01-31T03:44:08.828Z,87.89
2023-01-31T03:47:29.144Z,87.87
2023-01-31T03:49:09.315Z,87.58
2023-01-31T03:50:49.501Z,87.44
2023-01-31T03:52:29.694Z,87.43
2023-01-31T03:54:09.833Z,87.69
2023-01-31T03:55:49.939Z,87.46
2023-01-31T03:57:30.096Z,87.63
2023-01-31T03:59:10.222Z,87.57
2023-01-31T04:00:50.365Z,87.49
2023-01-31T04:02:30.504Z,87.59
2023-01-31T04:04:10.618Z,87.56
2023-01-31T04:05:50.719Z,87.58
2023-01-31T04:07:30.873Z,87.64
2023-01-31T04:09:11.042Z,87.7
2023-01-31T04:10:51.208Z,87.69
2023-01-31T04:12:31.429Z,87.76
2023-01-31T04:14:11.624Z,87.73
2023-01-31T04:15:51.775Z,87.91
2023-01-31T04:17:32.140Z,87.98
2023-01-31T04:19:12.103Z,88.13
2023-01-31T04:20:52.147Z,88.15
2023-01-31T04:22:32.315Z,88.15
2023-01-31T04:24:12.572Z,88.22
2023-01-31T04:25:52.606Z,88.22
2023-01-31T04:27:33.325Z,88.2
2023-01-31T04:29:12.941Z,88.21
2023-01-31T04:30:53.059Z,88.18
2023-01-31T04:32:33.547Z,88.21
2023-01-31T04:34:13.430Z,88.2
2023-01-31T04:35:53.610Z,88.24
2023-01-31T04:37:33.760Z,88.17
2023-01-31T04:39:13.850Z,88.05
2023-01-31T04:40:53.991Z,88.13
2023-01-31T04:42:34.145Z,88.27
2023-01-31T04:44:14.273Z,88.4
2023-01-31T04:45:54.455Z,88.55
2023-01-31T04:47:34.589Z,88.67
2023-01-31T04:49:14.723Z,88.81
2023-01-31T04:50:54.881Z,89.11
2023-01-31T04:52:35.022Z,89.3
2023-01-31T04:54:15.197Z,89.16
2023-01-31T04:55:55.396Z,89.02
2023-01-31T04:57:35.517Z,88.93
2023-01-31T04:59:15.647Z,88.89
2023-01-31T05:00:55.887Z,88.79
2023-01-31T05:02:36.331Z,88.79
2023-01-31T05:04:16.136Z,88.84
2023-01-31T05:05:56.297Z,88.94
2023-01-31T05:07:36.424Z,89.01
2023-01-31T05:09:16.532Z,89
2023-01-31T05:10:56.679Z,88.92
2023-01-31T05:12:36.841Z,88.95
2023-01-31T05:14:17.005Z,89.18
2023-01-31T05:15:57.205Z,89.27
2023-01-31T05:17:37.342Z,89.05
2023-01-31T05:19:17.475Z,89.06
2023-01-31T05:20:57.600Z,88.71
2023-01-31T05:22:37.769Z,88.61
2023-01-31T05:24:17.921Z,88.65
2023-01-31T05:25:58.031Z,88.54
2023-01-31T05:27:38.171Z,88.33
2023-01-31T05:29:18.356Z,88.19
2023-01-31T05:30:58.531Z,88.11
2023-01-31T05:32:38.656Z,88.21
2023-01-31T05:34:18.844Z,88.29
2023-01-31T05:35:58.964Z,88.22
2023-01-31T05:37:39.119Z,88.24
2023-01-31T05:39:19.271Z,88.07
2023-01-31T05:40:59.420Z,88.08
2023-01-31T05:42:39.537Z,87.94
2023-01-31T05:44:19.724Z,87.8
2023-01-31T05:46:00.007Z,87.76
2023-01-31T05:47:40.045Z,87.64
2023-01-31T05:49:20.189Z,87.71
2023-01-31T05:51:00.835Z,87.53
2023-01-31T05:52:40.562Z,87.41
2023-01-31T05:54:20.676Z,87.5
2023-01-31T05:56:00.780Z,87.55
2023-01-31T05:57:40.894Z,87.05
2023-01-31T05:59:21.050Z,86.98
2023-01-31T06:01:01.186Z,86.83
2023-01-31T06:02:41.334Z,86.67
2023-01-31T06:04:21.471Z,86.85
2023-01-31T06:06:01.714Z,87.07
2023-01-31T06:07:41.700Z,87.23
2023-01-31T06:09:21.859Z,87.34
2023-01-31T06:11:02.033Z,87.46
2023-01-31T06:12:42.204Z,87.56
2023-01-31T06:14:22.315Z,87.3
2023-01-31T06:16:02.489Z,87.1
2023-01-31T06:17:42.627Z,87.32
2023-01-31T06:19:22.819Z,87.3
2023-01-31T06:21:03.002Z,87.59
2023-01-31T06:22:43.125Z,87.82
2023-01-31T06:24:23.276Z,88.04
2023-01-31T06:26:03.380Z,88.16
2023-01-31T06:27:43.571Z,88.42
2023-01-31T06:29:23.687Z,88.55
2023-01-31T06:31:03.992Z,88.44
2023-01-31T06:32:43.969Z,88.41
2023-01-31T06:34:24.113Z,88.51
2023-01-31T06:36:04.273Z,87.96
2023-01-31T06:37:44.452Z,87.49
2023-01-31T06:39:24.731Z,87.41
2023-01-31T06:41:04.976Z,87.07
2023-01-31T06:42:45.088Z,87.37
2023-01-31T06:44:26.572Z,87.39
2023-01-31T06:46:05.754Z,87.02
2023-01-31T06:47:45.663Z,86.51
2023-01-31T06:49:37.702Z,86.25
2023-01-31T06:51:17.887Z,85.57
2023-01-31T06:52:58.050Z,85.47
2023-01-31T06:54:38.172Z,85.23
2023-01-31T06:56:18.288Z,85.04
2023-01-31T06:57:58.456Z,84.76
2023-01-31T06:59:38.566Z,84.67
2023-01-31T07:01:18.702Z,84.09
2023-01-31T07:02:58.843Z,83.84
2023-01-31T07:04:38.998Z,83.66
2023-01-31T07:06:19.168Z,83.24
2023-01-31T07:07:59.354Z,83.33
2023-01-31T07:09:39.498Z,82.75
2023-01-31T07:11:19.668Z,82.99
2023-01-31T07:12:59.803Z,81.9
2023-01-31T07:14:39.925Z,81.79
2023-01-31T07:16:20.167Z,81.5
2023-01-31T07:18:00.208Z,81.41
2023-01-31T07:19:40.333Z,81.52
2023-01-31T07:21:20.493Z,81.09
2023-01-31T07:23:00.681Z,81.16
2023-01-31T07:24:40.834Z,81.4
2023-01-31T07:26:21.027Z,81.65
2023-01-31T07:28:01.121Z,80.98
2023-01-31T07:29:41.255Z,81.08
2023-01-31T07:31:21.504Z,81.29
2023-01-31T07:33:01.574Z,81.77
2023-01-31T07:34:41.750Z,81.42
2023-01-31T07:36:21.918Z,81.44
2023-01-31T07:38:02.056Z,81.26
2023-01-31T07:39:42.224Z,81.44
2023-01-31T07:41:22.365Z,81.78
2023-01-31T07:43:02.564Z,81.41
2023-01-31T07:44:42.757Z,81.39
2023-01-31T07:46:22.950Z,81.8
2023-01-31T07:48:03.053Z,81.77
2023-01-31T07:49:43.207Z,81.75
2023-01-31T07:51:23.396Z,81.43
2023-01-31T07:53:03.560Z,81.43
2023-01-31T07:54:43.696Z,81.37
2023-01-31T07:56:23.859Z,81.45
2023-01-31T07:58:04.020Z,81.59
2023-01-31T07:59:44.169Z,81.95
2023-01-31T08:01:24.494Z,81.88
2023-01-31T08:03:04.484Z,81.74
2023-01-31T08:04:44.661Z,81.66
2023-01-31T08:06:24.770Z,81.76
2023-01-31T08:08:04.983Z,81.87
2023-01-31T08:09:45.165Z,81.59
2023-01-31T08:11:25.298Z,81.32
2023-01-31T08:13:05.400Z,81.39
2023-01-31T08:14:45.545Z,81.08
2023-01-31T08:16:25.703Z,80.8
2023-01-31T08:18:06.520Z,80.98
2023-01-31T08:19:46.205Z,80.62
2023-01-31T08:21:26.208Z,81.42
2023-01-31T08:23:06.354Z,80.97
2023-01-31T08:24:46.824Z,81.17
2023-01-31T08:26:26.755Z,81.13
2023-01-31T08:28:06.822Z,81.03
2023-01-31T08:29:46.979Z,81.28
2023-01-31T08:31:27.214Z,81.28
2023-01-31T08:33:07.266Z,80.52
2023-01-31T08:34:47.455Z,80.18
2023-01-31T08:36:27.691Z,80.69
2023-01-31T08:38:16.399Z,80.06
2023-01-31T08:39:47.985Z,80.43
2023-01-31T08:41:28.163Z,80.09
2023-01-31T08:43:08.346Z,80.41
2023-01-31T08:44:48.594Z,80.6
2023-01-31T08:46:29.188Z,79.87
2023-01-31T08:48:08.863Z,79.97
2023-01-31T08:49:49.069Z,80.16
2023-01-31T08:51:29.262Z,79.87
2023-01-31T08:53:09.339Z,79.46
2023-01-31T08:54:49.514Z,79.99
2023-01-31T08:56:30.216Z,79.83
2023-01-31T08:58:09.845Z,79.27
2023-01-31T08:59:50.034Z,79.78
2023-01-31T09:01:30.499Z,79.87
2023-01-31T09:03:10.395Z,79.97
2023-01-31T09:04:50.491Z,79.55
2023-01-31T09:06:31.119Z,79.44
2023-01-31T09:08:10.769Z,79.21
2023-01-31T09:09:50.897Z,79.15
2023-01-31T09:11:31.595Z,78.92
2023-01-31T09:13:11.268Z,78.96
2023-01-31T09:14:51.428Z,78.74
2023-01-31T09:16:31.585Z,78.74
2023-01-31T09:18:11.748Z,78.54
2023-01-31T09:19:51.912Z,78.77
2023-01-31T09:21:32.451Z,78.88
2023-01-31T09:23:12.297Z,78.66
2023-01-31T09:24:52.464Z,78.61
2023-01-31T09:26:33.245Z,78.67
2023-01-31T09:28:12.894Z,78.52
2023-01-31T09:29:53.041Z,78.72
2023-01-31T09:31:33.487Z,78.89
2023-01-31T09:33:13.334Z,78.68
2023-01-31T09:34:53.466Z,78.32
2023-01-31T09:36:33.647Z,78.28
2023-01-31T09:38:13.856Z,78.21
2023-01-31T09:39:54.049Z,77.97
2023-01-31T09:41:34.230Z,78.1
2023-01-31T09:43:14.328Z,78.1
2023-01-31T09:44:54.494Z,78.07
2023-01-31T09:46:34.699Z,77.82
2023-01-31T09:48:14.807Z,78.27
2023-01-31T09:49:54.989Z,78.28
2023-01-31T09:51:35.185Z,78.44
2023-01-31T09:53:15.301Z,78.72
2023-01-31T09:54:55.472Z,78.52
2023-01-31T09:56:35.571Z,78.7
2023-01-31T09:58:15.750Z,79.7
2023-01-31T09:59:55.943Z,80.22
2023-01-31T10:01:36.301Z,80.99
2023-01-31T10:03:16.193Z,82.14
2023-01-31T10:04:56.303Z,83.02
2023-01-31T10:06:36.428Z,83.86
2023-01-31T10:08:16.579Z,83.4
2023-01-31T10:09:56.755Z,83.58
2023-01-31T10:11:38.263Z,84.09
2023-01-31T10:13:17.032Z,85.24
2023-01-31T10:14:57.227Z,84.84
2023-01-31T10:16:37.402Z,85.11
2023-01-31T10:18:24.143Z,85.47
2023-01-31T10:20:04.367Z,85.7
2023-01-31T10:21:44.452Z,86.3
2023-01-31T10:23:24.675Z,86.38
2023-01-31T10:25:04.821Z,86.67
2023-01-31T10:26:45.014Z,86.7
2023-01-31T10:28:25.154Z,86.4
2023-01-31T10:30:05.315Z,86.47
2023-01-31T10:31:45.526Z,86.59
2023-01-31T10:33:32.017Z,86.95
2023-01-31T10:35:12.021Z,87.29
2023-01-31T10:36:52.213Z,87.49
2023-01-31T10:38:32.432Z,87.71
2023-01-31T10:40:12.628Z,88.05
2023-01-31T10:41:52.934Z,88.66
2023-01-31T10:43:33.029Z,88.98
2023-01-31T10:45:13.249Z,88.61
2023-01-31T10:46:53.441Z,88.87
2023-01-31T10:48:33.612Z,89.31
2023-01-31T10:50:13.784Z,89.51
2023-01-31T10:51:54.034Z,89.58
2023-01-31T10:53:34.200Z,89.95
2023-01-31T10:55:14.400Z,90.62
2023-01-31T10:56:54.632Z,90.51
2023-01-31T10:58:35.307Z,90.72
2023-01-31T11:00:15.040Z,90.7
2023-01-31T11:01:55.234Z,90.29
2023-01-31T11:03:35.290Z,90.52
2023-01-31T11:05:15.466Z,90.16
2023-01-31T11:06:55.618Z,89.55
2023-01-31T11:08:35.758Z,89.63
2023-01-31T11:10:15.899Z,89.75
2023-01-31T11:11:56.080Z,89.32
2023-01-31T11:13:36.259Z,89.22
2023-01-31T11:15:16.392Z,90.07
2023-01-31T11:16:56.630Z,90.1
2023-01-31T11:18:36.813Z,90.2
2023-01-31T11:20:16.892Z,91.1
2023-01-31T11:21:57.028Z,90.56
2023-01-31T11:23:37.201Z,90.17
2023-01-31T11:25:17.331Z,89.91
2023-01-31T11:26:57.547Z,90.11
2023-01-31T11:28:37.744Z,90.48
2023-01-31T11:30:17.868Z,90.35
2023-01-31T11:31:58.138Z,90.32
2023-01-31T11:33:38.242Z,90.36
2023-01-31T11:35:18.358Z,89.91
2023-01-31T11:36:58.504Z,90.25
2023-01-31T11:38:38.716Z,90.55
2023-01-31T11:40:19.323Z,90.63
2023-01-31T11:41:59.012Z,90.55
2023-01-31T11:43:39.196Z,90.65
2023-01-31T11:45:19.385Z,90.79
2023-01-31T11:46:59.561Z,90.82
2023-01-31T11:48:39.713Z,90.76
2023-01-31T11:50:20.215Z,90.82
2023-01-31T11:52:00.070Z,90.98
2023-01-31T11:53:40.208Z,90.96
2023-01-31T11:55:25.982Z,90.74
2023-01-31T11:57:06.116Z,90.93
2023-01-31T11:58:46.243Z,91.07
2023-01-31T12:00:26.400Z,90.85
2023-01-31T12:02:06.565Z,90.91
2023-01-31T12:04:01.152Z,90.7
2023-01-31T12:05:26.852Z,90.41
2023-01-31T12:07:06.988Z,90.6
2023-01-31T12:08:47.161Z,90.63
2023-01-31T12:10:27.332Z,90.32
2023-01-31T12:12:08.118Z,89.79
2023-01-31T12:13:47.598Z,90.27
2023-01-31T12:15:27.760Z,90
2023-01-31T12:17:07.957Z,89.98
2023-01-31T12:18:48.121Z,90.86
2023-01-31T12:20:29.215Z,89.75
2023-01-31T12:22:08.491Z,89.78
2023-01-31T12:23:50.705Z,89.68
2023-01-31T12:25:28.759Z,90.01
2023-01-31T12:27:08.957Z,89.85
2023-01-31T12:28:49.092Z,90.11
2023-01-31T12:30:29.412Z,90.54
2023-01-31T12:32:09.508Z,90.85
2023-01-31T12:33:49.638Z,91.42
2023-01-31T12:35:29.778Z,91.38
2023-01-31T12:37:09.921Z,91.65
2023-01-31T12:38:50.167Z,91.81
2023-01-31T12:40:30.837Z,91.78
2023-01-31T12:42:10.673Z,91.59
2023-01-31T12:43:50.798Z,91.72
2023-01-31T12:45:30.975Z,91.99
2023-01-31T12:47:12.002Z,91.73
2023-01-31T12:48:51.329Z,91.81
2023-01-31T12:50:31.507Z,91.44
2023-01-31T12:52:11.676Z,91.17
2023-01-31T12:53:51.827Z,91.27
2023-01-31T12:55:32.005Z,91.15
2023-01-31T12:57:12.224Z,91.21
2023-01-31T12:59:02.999Z,91.14
2023-01-31T13:00:32.477Z,91.02
2023-01-31T13:02:12.638Z,91.4
2023-01-31T13:03:52.816Z,91.68
2023-01-31T13:05:32.986Z,92.05
2023-01-31T13:07:13.121Z,91.7
2023-01-31T13:09:06.927Z,91.63
2023-01-31T13:10:33.420Z,91.58
2023-01-31T13:12:13.632Z,91.82
2023-01-31T13:13:53.756Z,91.85
2023-01-31T13:15:33.917Z,91.77
2023-01-31T13:17:14.048Z,91.86
2023-01-31T13:20:34.389Z,91.71
2023-01-31T13:22:14.535Z,91.34
2023-01-31T13:23:54.713Z,91
2023-01-31T13:25:34.898Z,91.17
2023-01-31T13:27:15.059Z,91.52
2023-01-31T13:28:55.204Z,91.63
2023-01-31T13:30:35.361Z,91.8
2023-01-31T13:32:15.547Z,91.93
2023-01-31T13:33:55.633Z,92.06
2023-01-31T13:35:35.803Z,92.01
2023-01-31T13:37:15.940Z,91.86
2023-01-31T13:38:56.077Z,91.85
2023-01-31T13:40:36.263Z,91.92
2023-01-31T13:42:16.432Z,92.31
2023-01-31T13:43:56.547Z,92.49
2023-01-31T13:45:36.779Z,92.4
2023-01-31T13:47:16.954Z,92.61
2023-01-31T13:48:57.133Z,92.75
2023-01-31T13:50:37.246Z,92.75
2023-01-31T13:52:17.420Z,92.74
2023-01-31T13:53:57.570Z,92.96
2023-01-31T13:55:37.740Z,92.8
2023-01-31T13:57:17.919Z,93.13
2023-01-31T13:58:58.089Z,93.53
2023-01-31T14:00:38.254Z,93.87
2023-01-31T14:02:18.368Z,93.93
2023-01-31T14:03:58.483Z,93.71
2023-01-31T14:05:38.646Z,93.66
2023-01-31T14:07:18.755Z,93.76
2023-01-31T14:08:58.923Z,93.42
2023-01-31T14:10:39.070Z,93.44
2023-01-31T14:12:19.187Z,93.48
2023-01-31T14:13:59.358Z,93.56
2023-01-31T14:15:39.503Z,93.07
2023-01-31T14:17:19.622Z,92.55
2023-01-31T14:18:59.843Z,92.48
2023-01-31T14:20:40.049Z,92.3
2023-01-31T14:22:20.230Z,92.27
2023-01-31T14:24:00.387Z,92.44
2023-01-31T14:25:40.515Z,92.82
2023-01-31T14:27:20.665Z,92.93
2023-01-31T14:29:00.861Z,93.26
2023-01-31T14:30:41.086Z,92.98
2023-01-31T14:32:21.127Z,92.89
2023-01-31T14:34:01.257Z,92.72
2023-01-31T14:35:41.493Z,92.95
2023-01-31T14:37:21.610Z,92.91
2023-01-31T14:39:01.781Z,92.85
2023-01-31T14:40:43.853Z,92.88
2023-01-31T14:42:22.130Z,92.46
2023-01-31T14:44:02.486Z,92.2
2023-01-31T14:45:42.554Z,92.07
2023-01-31T14:47:25.840Z,92.15
2023-01-31T14:49:04.736Z,92.17
2023-01-31T14:50:42.962Z,91.6
2023-01-31T14:52:23.128Z,91.49
2023-01-31T14:54:03.270Z,91.32
2023-01-31T14:55:43.387Z,91.11
2023-01-31T14:57:23.560Z,91.03
2023-01-31T14:59:03.649Z,91.11
2023-01-31T15:00:50.906Z,90.93
2023-01-31T15:02:24.225Z,90.88
2023-01-31T15:04:04.043Z,90.94
2023-01-31T15:05:44.181Z,90.98
2023-01-31T15:07:24.336Z,91.19
2023-01-31T15:09:04.505Z,91
2023-01-31T15:10:44.703Z,91.1
2023-01-31T15:12:24.778Z,90.94
2023-01-31T15:14:04.917Z,91.07
2023-01-31T15:15:45.025Z,90.91
2023-01-31T15:17:36.256Z,90.86
2023-01-31T15:19:05.403Z,90.82
2023-01-31T15:20:45.529Z,90.92
2023-01-31T15:22:25.686Z,90.97
2023-01-31T15:24:05.836Z,90.93
2023-01-31T15:25:45.968Z,91.13
2023-01-31T15:27:26.099Z,91.15
2023-01-31T15:29:06.284Z,91.21
2023-01-31T15:30:46.471Z,91.06
2023-01-31T15:32:26.540Z,91.09
2023-01-31T15:34:06.748Z,91.06
2023-01-31T15:35:50.023Z,91.04
2023-01-31T15:37:27.122Z,91.06
2023-01-31T15:39:07.266Z,90.79
2023-01-31T15:40:47.475Z,90.77
2023-01-31T15:42:27.591Z,90.66
2023-01-31T15:44:07.731Z,90.79
2023-01-31T15:45:48.008Z,90.91
2023-01-31T15:47:28.060Z,90.88
2023-01-31T15:49:08.211Z,90.83
2023-01-31T15:50:48.371Z,90.83
2023-01-31T15:52:28.550Z,90.78
2023-01-31T15:54:08.739Z,90.8
2023-01-31T15:55:48.888Z,90.8
2023-01-31T15:57:29.040Z,90.93
2023-01-31T15:59:09.190Z,91.12
2023-01-31T16:00:49.443Z,91.1
2023-01-31T16:02:29.538Z,91.14
2023-01-31T16:04:09.582Z,91.23
2023-01-31T16:05:49.758Z,91.28
2023-01-31T16:07:29.909Z,91.29
2023-01-31T16:09:10.052Z,91.27
2023-01-31T16:10:50.198Z,91.31
2023-01-31T16:12:30.327Z,91.26
2023-01-31T16:14:10.478Z,91.04
2023-01-31T16:15:50.655Z,90.88
2023-01-31T16:17:30.788Z,90.86
2023-01-31T16:19:10.991Z,90.82
2023-01-31T16:20:51.206Z,90.69
2023-01-31T16:22:34.460Z,90.86
2023-01-31T16:24:11.616Z,90.76
2023-01-31T16:25:51.718Z,90.62
2023-01-31T16:27:31.889Z,90.68
2023-01-31T16:29:12.029Z,90.81
2023-01-31T16:30:52.283Z,90.98
2023-01-31T16:32:32.341Z,90.92
2023-01-31T16:34:12.502Z,90.95
2023-01-31T16:36:00.815Z,90.89
2023-01-31T16:37:32.786Z,90.75
2023-01-31T16:39:12.904Z,90.52
2023-01-31T16:40:53.086Z,90.27
2023-01-31T16:42:33.248Z,90.27
2023-01-31T16:44:13.435Z,90.44
2023-01-31T16:45:53.685Z,90.72
2023-01-31T16:47:33.748Z,91.29
2023-01-31T16:49:13.876Z,91.65
2023-01-31T16:50:54.098Z,91.91
2023-01-31T16:52:34.226Z,92.12
2023-01-31T16:54:14.386Z,92.3
2023-01-31T16:55:54.565Z,92.57
2023-01-31T16:57:37.464Z,92.8
2023-01-31T16:59:14.832Z,92.62
2023-01-31T17:00:55.004Z,92.96
2023-01-31T17:02:35.206Z,92.98
2023-01-31T17:04:15.325Z,92.79
2023-01-31T17:05:55.450Z,92.79
2023-01-31T17:07:35.618Z,92.72
2023-01-31T17:09:18.820Z,92.66
2023-01-31T17:10:55.908Z,92.82
2023-01-31T17:12:36.061Z,92.71
2023-01-31T17:14:16.221Z,92.63
2023-01-31T17:15:56.361Z,92.77
2023-01-31T17:17:36.495Z,93.03
2023-01-31T17:19:16.653Z,92.85
2023-01-31T17:20:56.843Z,92.78
2023-01-31T17:22:36.987Z,92.67
2023-01-31T17:24:17.146Z,92.6
2023-01-31T17:25:57.319Z,92.31
2023-01-31T17:27:37.440Z,91.86
2023-01-31T17:29:17.607Z,91.63
2023-01-31T17:30:57.904Z,91.59
2023-01-31T17:32:37.911Z,91.36
2023-01-31T17:34:18.114Z,91.41
2023-01-31T17:35:58.214Z,91.27
2023-01-31T17:37:38.371Z,91.43
2023-01-31T17:39:18.594Z,91.01
2023-01-31T17:41:01.817Z,90.69
2023-01-31T17:42:38.881Z,90.72
2023-01-31T17:44:21.323Z,90.8
2023-01-31T17:45:59.273Z,90.75
2023-01-31T17:47:39.422Z,90.8
2023-01-31T17:49:19.528Z,90.71
2023-01-31T17:50:59.821Z,90.68
2023-01-31T17:52:39.924Z,90.75
2023-01-31T17:54:20.098Z,90.62
2023-01-31T17:56:00.214Z,90.51
2023-01-31T17:57:40.400Z,90.57
2023-01-31T17:59:26.963Z,90.51
2023-01-31T18:01:00.643Z,90.76
2023-01-31T18:02:40.887Z,90.91
2023-01-31T18:04:21.047Z,91
2023-01-31T18:06:01.133Z,90.79
2023-01-31T18:07:41.259Z,90.88
2023-01-31T18:09:21.387Z,90.55
2023-01-31T18:11:01.501Z,90.33
2023-01-31T18:12:41.694Z,90.41
2023-01-31T18:14:21.804Z,90.5
2023-01-31T18:16:01.985Z,90.17
2023-01-31T18:17:42.093Z,90.28
2023-01-31T18:19:22.224Z,89.75
2023-01-31T18:21:02.444Z,90.1
2023-01-31T18:22:42.568Z,89.6
2023-01-31T18:24:22.687Z,89.12
2023-01-31T18:26:02.826Z,88.85
2023-01-31T18:27:42.977Z,88.92
2023-01-31T18:29:23.117Z,89.27
2023-01-31T18:31:03.329Z,89.22
2023-01-31T18:32:43.413Z,89.01
2023-01-31T18:34:23.527Z,88.76
2023-01-31T18:36:03.717Z,88.56
2023-01-31T18:37:43.903Z,88.27
2023-01-31T18:39:24.037Z,88.44
2023-01-31T18:41:04.354Z,88.23
2023-01-31T18:42:44.599Z,88.14
2023-01-31T18:44:24.733Z,88.14
2023-01-31T18:46:05.001Z,88.13
2023-01-31T18:47:45.139Z,87.69
2023-01-31T18:49:25.333Z,87.71
2023-01-31T18:51:05.476Z,87.53
2023-01-31T18:52:45.635Z,87.21
2023-01-31T18:54:25.849Z,87.13
2023-01-31T18:56:05.970Z,86.47
2023-01-31T18:57:46.139Z,85.7
2023-01-31T18:59:26.289Z,84.89
2023-01-31T19:01:06.557Z,84.53
2023-01-31T19:02:46.570Z,84.64
2023-01-31T19:04:26.763Z,84.92
2023-01-31T19:06:06.935Z,84.89
2023-01-31T19:07:47.059Z,85.02
2023-01-31T19:09:30.241Z,84.83
2023-01-31T19:11:07.299Z,84.69
2023-01-31T19:12:47.498Z,84.92
2023-01-31T19:14:27.663Z,85.19
2023-01-31T19:16:07.864Z,85.39
2023-01-31T19:17:47.950Z,85.62
2023-01-31T19:19:28.072Z,85.95
2023-01-31T19:21:08.236Z,86.08
2023-01-31T19:22:48.430Z,85.63
2023-01-31T19:24:28.574Z,85.82
2023-01-31T19:26:08.801Z,85.87
2023-01-31T19:27:56.050Z,86.17
2023-01-31T19:29:29.113Z,86.28
2023-01-31T19:31:09.376Z,85.89
2023-01-31T19:32:49.398Z,85.57
2023-01-31T19:34:29.540Z,85.8
2023-01-31T19:36:09.738Z,85.13
2023-01-31T19:37:49.870Z,84.49
2023-01-31T19:39:30.041Z,84.38
2023-01-31T19:41:10.223Z,84.32
2023-01-31T19:42:50.402Z,84.67
2023-01-31T19:44:30.577Z,85.16
2023-01-31T19:46:10.786Z,85.51
2023-01-31T19:47:50.884Z,85.84
2023-01-31T19:49:34.075Z,86.09
2023-01-31T19:51:11.163Z,86.29
2023-01-31T19:52:51.319Z,86.45
2023-01-31T19:54:31.472Z,86.53
2023-01-31T19:56:11.600Z,86.48
2023-01-31T19:57:51.791Z,86.39
2023-01-31T19:59:31.957Z,86.11
2023-01-31T20:01:12.161Z,86.06
2023-01-31T20:02:52.302Z,85.64
2023-01-31T20:04:32.556Z,85.26
2023-01-31T20:06:12.561Z,85.25
2023-01-31T20:07:52.764Z,84.63
2023-01-31T20:09:32.904Z,84.41
2023-01-31T20:11:13.025Z,84.6
2023-01-31T20:12:53.205Z,84.5
2023-01-31T20:14:33.283Z,83.75
2023-01-31T20:16:13.498Z,83.13
2023-01-31T20:17:53.570Z,83.25
2023-01-31T20:19:33.761Z,83.25
2023-01-31T20:21:13.915Z,83.29
2023-01-31T20:22:54.068Z,83.06
2023-01-31T20:24:34.190Z,83.02
2023-01-31T20:26:14.389Z,83.22
2023-01-31T20:27:54.449Z,83.25
2023-01-31T20:29:34.619Z,82.96
2023-01-31T20:31:14.810Z,82.97
2023-01-31T20:32:54.974Z,83.02
2023-01-31T20:34:35.109Z,82.8
2023-01-31T20:36:15.252Z,82.64
2023-01-31T20:37:55.377Z,82.17
2023-01-31T20:39:35.600Z,82.45
2023-01-31T20:41:15.734Z,82.43
2023-01-31T20:42:55.888Z,82.34
2023-01-31T20:44:35.983Z,82.3
2023-01-31T20:46:16.275Z,82.3
2023-01-31T20:47:56.336Z,82.14
2023-01-31T20:49:36.535Z,82.17
2023-01-31T20:51:16.790Z,82.1
2023-01-31T20:52:56.932Z,82.32
2023-01-31T20:54:37.110Z,81.76
2023-01-31T20:56:17.254Z,81.98
2023-01-31T20:57:57.430Z,81.58
2023-01-31T20:59:37.551Z,81.68
2023-01-31T21:01:17.754Z,81.86
2023-01-31T21:02:57.808Z,81.57
2023-01-31T21:04:37.922Z,81.59
2023-01-31T21:06:18.053Z,81.78
2023-01-31T21:07:58.173Z,81.99
2023-01-31T21:09:38.325Z,81.88
2023-01-31T21:11:18.448Z,81.93
2023-01-31T21:12:58.589Z,81.93
2023-01-31T21:14:38.745Z,81.17
2023-01-31T21:16:18.939Z,81.13
2023-01-31T21:17:59.023Z,80.84
2023-01-31T21:19:39.137Z,80.56
2023-01-31T21:21:19.320Z,80.41
2023-01-31T21:22:59.498Z,80.41
2023-01-31T21:24:39.653Z,80.35
2023-01-31T21:26:19.824Z,80.68
2023-01-31T21:27:59.983Z,80.76
2023-01-31T21:29:40.114Z,80.56
2023-01-31T21:31:20.479Z,80.87
2023-01-31T21:33:00.446Z,80.58
2023-01-31T21:34:41.021Z,80.69
2023-01-31T21:36:20.743Z,80.8
2023-01-31T21:38:00.888Z,81.08
2023-01-31T21:39:41.043Z,81.35
2023-01-31T21:41:21.218Z,81.79
2023-01-31T21:43:01.410Z,81.71
2023-01-31T21:44:41.552Z,81.93
2023-01-31T21:46:21.839Z,82.26
2023-01-31T21:48:01.955Z,82.39
2023-01-31T21:49:42.158Z,82.4
2023-01-31T21:51:22.258Z,82.29
2023-01-31T21:53:02.398Z,82.38
2023-01-31T21:54:42.532Z,82.58
2023-01-31T21:56:22.674Z,82.54
2023-01-31T21:58:02.819Z,82.74
2023-01-31T21:59:42.972Z,82.75
2023-01-31T22:01:23.176Z,82.92
2023-01-31T22:03:03.318Z,83